Time;durP1;ratioP1;P1;durP2;ratioP2;P2;SDS_P1;SDS_P2;PMS_P1;PMS_P2;Temp;Humidity;BMP_temperature;BMP_pressure;BME280_temperature;BME280_humidity;BME280_pressure;Samples;Min_cycle;Max_cycle;Signal;HPM_P1;HPM_P2
2022/10/19 00:02:17;;;;;;;1.60;0.85;;;16.80;68.80;;;;;;5073156;28;20059;-73
2022/10/19 00:04:44;;;;;;;1.95;1.10;;;16.90;68.90;;;;;;5073203;28;20056;-74
2022/10/19 00:07:10;;;;;;;1.60;1.00;;;16.90;68.80;;;;;;5088297;28;20056;-73
2022/10/19 00:09:37;;;;;;;1.20;0.90;;;16.80;68.80;;;;;;5093285;28;20131;-74
2022/10/19 00:12:04;;;;;;;1.77;1.00;;;16.80;68.80;;;;;;5092991;28;20052;-73
2022/10/19 00:14:31;;;;;;;2.55;1.20;;;16.80;68.80;;;;;;5093049;28;20052;-74
2022/10/19 00:16:58;;;;;;;1.88;0.90;;;16.80;68.80;;;;;;5079601;28;20052;-73
2022/10/19 00:19:27;;;;;;;1.83;0.88;;;16.80;68.80;;;;;;5073192;28;20481;-73
2022/10/19 00:21:53;;;;;;;1.42;0.80;;;16.80;68.90;;;;;;5072688;28;20095;-73
2022/10/19 00:24:20;;;;;;;2.40;1.08;;;16.80;68.90;;;;;;5072838;28;20055;-73
2022/10/19 00:26:47;;;;;;;1.50;1.00;;;16.80;68.80;;;;;;5084187;28;20062;-73
2022/10/19 00:29:14;;;;;;;1.58;0.77;;;16.80;68.80;;;;;;5093477;28;20056;-74
2022/10/19 00:31:41;;;;;;;1.23;1.00;;;16.80;68.90;;;;;;5093164;28;20079;-74
2022/10/19 00:34:08;;;;;;;1.33;0.80;;;16.80;68.90;;;;;;5093075;28;20052;-74
2022/10/19 00:36:36;;;;;;;2.83;1.00;;;16.80;68.90;;;;;;5084281;28;20456;-74
2022/10/19 00:39:04;;;;;;;1.75;1.10;;;16.80;68.90;;;;;;5073012;28;20055;-74
2022/10/19 00:41:31;;;;;;;1.23;0.90;;;16.80;68.90;;;;;;5072784;28;20056;-74
2022/10/19 00:44:01;;;;;;;1.75;1.10;;;16.80;68.90;;;;;;5072949;28;20066;-74
2022/10/19 00:46:29;;;;;;;1.58;0.82;;;16.80;68.90;;;;;;5081383;28;20089;-74
2022/10/19 00:48:57;;;;;;;1.23;0.90;;;16.80;68.90;;;;;;5093205;28;20054;-74
2022/10/19 00:51:24;;;;;;;2.25;1.08;;;16.80;68.90;;;;;;5092529;28;20050;-74
2022/10/19 00:53:52;;;;;;;1.38;0.85;;;16.70;68.90;;;;;;5093900;28;20509;-74
2022/10/19 00:56:19;;;;;;;1.55;0.90;;;16.80;68.90;;;;;;5084134;28;20062;-74
2022/10/19 00:58:45;;;;;;;2.60;1.00;;;16.80;68.90;;;;;;5072901;28;20490;-74
2022/10/19 01:01:14;;;;;;;2.00;1.00;;;16.70;68.90;;;;;;5072475;28;20048;-73
2022/10/19 01:03:41;;;;;;;1.25;0.95;;;16.80;68.90;;;;;;5072460;28;20500;-74
2022/10/19 01:06:08;;;;;;;1.50;0.90;;;16.70;68.90;;;;;;5077816;28;20058;-74
2022/10/19 01:08:34;;;;;;;2.28;1.00;;;16.80;68.90;;;;;;5092435;28;20135;-73
2022/10/19 01:11:10;;;;;;;1.98;0.98;;;16.70;68.90;;;;;;5092295;28;20401;-74
2022/10/19 01:13:39;;;;;;;1.30;0.90;;;16.70;70.90;;;;;;5092774;28;20051;-74
2022/10/19 01:16:08;;;;;;;2.17;1.05;;;16.70;68.90;;;;;;5087598;28;20497;-73
2022/10/19 01:18:39;;;;;;;2.63;0.90;;;16.70;68.90;;;;;;5071792;28;20058;-74
2022/10/19 01:21:15;;;;;;;1.15;0.80;;;16.70;68.90;;;;;;5071496;28;20132;-73
2022/10/19 01:24:11;;;;;;;1.40;0.85;;;16.70;68.90;;;;;;5071746;28;20052;-74
2022/10/19 01:27:11;;;;;;;1.67;0.90;;;16.70;68.80;;;;;;5062749;28;20703;-73
2022/10/19 01:29:56;;;;;;;1.92;0.82;;;16.70;68.80;;;;;;5092910;28;20511;-73
2022/10/19 01:32:25;;;;;;;0.70;0.70;;;16.70;68.90;;;;;;5091943;28;20408;-73
2022/10/19 01:34:54;;;;;;;1.98;0.90;;;16.70;68.90;;;;;;5091837;28;20143;-73
2022/10/19 01:37:23;;;;;;;1.75;1.00;;;16.70;68.90;;;;;;5076790;28;20401;-73
2022/10/19 01:39:53;;;;;;;1.55;0.93;;;16.70;68.90;;;;;;5071330;28;20508;-73
2022/10/19 01:42:24;;;;;;;1.00;0.90;;;16.70;68.90;;;;;;5071235;28;20063;-73
2022/10/19 01:44:51;;;;;;;1.42;0.90;;;16.70;68.90;;;;;;5071245;28;20063;-73
2022/10/19 01:47:22;;;;;;;1.08;0.80;;;16.70;68.90;;;;;;5085218;28;20056;-73
2022/10/19 01:49:50;;;;;;;1.23;1.00;;;16.70;68.90;;;;;;5089770;28;20044;-74
2022/10/19 01:52:18;;;;;;;1.30;0.77;;;16.70;68.90;;;;;;5091465;28;20052;-74
2022/10/19 01:54:47;;;;;;;1.48;0.90;;;16.70;68.90;;;;;;5092877;28;20400;-73
2022/10/19 01:57:16;;;;;;;1.48;0.90;;;16.70;68.80;;;;;;5078170;28;20078;-74
2022/10/19 01:59:43;;;;;;;2.17;0.90;;;16.70;68.90;;;;;;5071178;28;20053;-74
2022/10/19 02:02:10;;;;;;;1.70;0.93;;;16.70;68.80;;;;;;5070989;28;20058;-74
2022/10/19 02:04:38;;;;;;;1.65;0.98;;;16.70;68.80;;;;;;5071641;28;20144;-74
2022/10/19 02:07:05;;;;;;;1.77;0.88;;;16.70;68.90;;;;;;5083676;28;20047;-74
2022/10/19 02:09:32;;;;;;;1.17;0.70;;;16.70;68.90;;;;;;5092440;28;20054;-74
2022/10/19 02:12:00;;;;;;;1.23;0.77;;;16.70;68.90;;;;;;5091030;28;20055;-74
2022/10/19 02:14:28;;;;;;;1.33;0.90;;;16.60;68.80;;;;;;5091480;28;20058;-74
2022/10/19 02:16:57;;;;;;;1.75;0.95;;;16.60;68.80;;;;;;5090127;28;20051;-74
2022/10/19 02:19:24;;;;;;;1.50;1.00;;;16.60;68.80;;;;;;5084844;28;20056;-74
2022/10/19 02:21:53;;;;;;;1.77;0.90;;;16.60;68.80;;;;;;5071978;28;20055;-74
2022/10/19 02:24:19;;;;;;;3.95;1.00;;;16.60;68.80;;;;;;5071068;28;20486;-74
2022/10/19 02:26:46;;;;;;;1.42;0.90;;;16.70;68.80;;;;;;5080946;28;20047;-74
2022/10/19 02:29:13;;;;;;;2.17;1.02;;;16.60;68.80;;;;;;5091019;28;20062;-73
2022/10/19 02:31:40;;;;;;;1.13;0.65;;;16.60;68.80;;;;;;5092155;28;20047;-74
2022/10/19 02:34:07;;;;;;;1.38;0.77;;;16.70;68.80;;;;;;5091407;28;20062;-74
2022/10/19 02:36:34;;;;;;;1.75;0.90;;;16.60;68.80;;;;;;5083881;28;20049;-74
2022/10/19 02:39:02;;;;;;;3.33;0.90;;;16.60;68.70;;;;;;5070821;28;20056;-74
2022/10/19 02:41:31;;;;;;;1.35;0.85;;;16.60;68.70;;;;;;5070298;28;20408;-73
2022/10/19 02:44:01;;;;;;;2.70;1.10;;;16.70;68.80;;;;;;5070922;28;20044;-74
2022/10/19 02:46:28;;;;;;;2.35;0.90;;;16.60;68.70;;;;;;5076616;28;20043;-74
2022/10/19 02:48:55;;;;;;;0.73;0.70;;;16.60;68.70;;;;;;5090742;28;20066;-74
2022/10/19 02:51:32;;;;;;;1.15;0.70;;;16.60;68.70;;;;;;5090863;28;20052;-74
2022/10/19 02:53:59;;;;;;;0.82;0.80;;;16.60;68.70;;;;;;5090840;28;20062;-73
2022/10/19 02:56:27;;;;;;;1.30;0.65;;;16.60;68.70;;;;;;5085974;28;20051;-73
2022/10/19 02:58:54;;;;;;;1.08;0.90;;;16.60;68.70;;;;;;5071806;28;20054;-74
2022/10/19 03:01:20;;;;;;;1.90;1.00;;;16.60;68.70;;;;;;5070174;28;20048;-74
2022/10/19 03:03:47;;;;;;;1.27;0.80;;;16.60;68.70;;;;;;5070594;28;20526;-74
2022/10/19 03:06:14;;;;;;;1.17;0.75;;;16.60;68.70;;;;;;5073756;28;20052;-74
2022/10/19 03:08:41;;;;;;;1.13;0.90;;;16.60;68.70;;;;;;5091704;28;20137;-74
2022/10/19 03:11:07;;;;;;;1.17;0.80;;;16.50;69.20;;;;;;5090270;28;20048;-74
2022/10/19 03:13:35;;;;;;;1.77;0.90;;;16.50;68.60;;;;;;5091789;28;20048;-74
2022/10/19 03:16:07;;;;;;;1.50;0.90;;;16.60;68.60;;;;;;5088274;28;20058;-74
2022/10/19 03:18:33;;;;;;;1.48;1.00;;;16.60;68.60;;;;;;5070420;28;20519;-74
2022/10/19 03:21:05;;;;;;;2.08;0.88;;;16.50;68.60;;;;;;5070868;28;20120;-74
2022/10/19 03:23:31;;;;;;;1.05;0.70;;;16.50;68.50;;;;;;5070428;28;20052;-74
2022/10/19 03:25:58;;;;;;;1.83;0.85;;;16.50;68.60;;;;;;5071191;28;20136;-74
2022/10/19 03:28:25;;;;;;;1.95;0.82;;;16.50;68.50;;;;;;5092009;28;20048;-74
2022/10/19 03:30:53;;;;;;;1.38;0.85;;;16.50;68.50;;;;;;5094182;28;20048;-74
2022/10/19 03:33:20;;;;;;;1.02;0.68;;;16.60;68.50;;;;;;5094186;28;20063;-74
2022/10/19 03:35:48;;;;;;;0.93;0.80;;;16.50;68.50;;;;;;5094300;28;20059;-73
2022/10/19 03:38:14;;;;;;;0.68;0.68;;;16.50;68.40;;;;;;5074132;28;20057;-75
2022/10/19 03:40:41;;;;;;;1.08;0.90;;;16.50;68.40;;;;;;5073429;28;20048;-73
2022/10/19 03:43:08;;;;;;;1.40;0.95;;;16.50;68.40;;;;;;5074944;28;20565;-74
2022/10/19 03:45:34;;;;;;;2.47;0.80;;;16.50;68.40;;;;;;5074816;28;20052;-74
2022/10/19 03:48:02;;;;;;;1.35;0.82;;;16.50;68.40;;;;;;5091411;28;20052;-74
2022/10/19 03:50:29;;;;;;;1.42;0.80;;;16.50;68.30;;;;;;5093762;28;20055;-74
2022/10/19 03:52:56;;;;;;;1.42;0.90;;;16.50;68.40;;;;;;5093929;28;20056;-74
2022/10/19 03:55:22;;;;;;;1.35;0.90;;;16.50;68.40;;;;;;5094071;28;20527;-74
2022/10/19 03:57:49;;;;;;;1.85;0.80;;;16.50;68.30;;;;;;5077632;28;20066;-74
2022/10/19 04:00:16;;;;;;;1.65;0.88;;;16.50;68.30;;;;;;5073449;28;20136;-74
2022/10/19 04:02:42;;;;;;;2.53;0.93;;;16.50;68.30;;;;;;5074611;28;20393;-74
2022/10/19 04:05:10;;;;;;;0.85;0.80;;;16.50;68.40;;;;;;5073095;28;20054;-74
2022/10/19 04:07:37;;;;;;;1.85;0.80;;;16.50;68.30;;;;;;5088169;28;20054;-74
2022/10/19 04:10:04;;;;;;;1.95;0.90;;;16.40;68.90;;;;;;5093164;28;20428;-73
2022/10/19 04:12:31;;;;;;;1.48;0.80;;;16.50;68.40;;;;;;5093772;28;20060;-74
2022/10/19 04:14:58;;;;;;;1.52;0.90;;;16.50;68.40;;;;;;5093714;28;20509;-74
2022/10/19 04:17:25;;;;;;;1.70;0.75;;;16.40;68.30;;;;;;5081138;28;20059;-74
2022/10/19 04:19:52;;;;;;;1.73;0.80;;;16.40;68.30;;;;;;5072644;28;20048;-74
2022/10/19 04:22:20;;;;;;;0.88;0.60;;;16.40;68.30;;;;;;5074205;28;20052;-73
2022/10/19 04:24:46;;;;;;;1.02;0.70;;;16.40;68.30;;;;;;5073141;28;20512;-73
2022/10/19 04:27:13;;;;;;;1.67;0.90;;;16.40;68.30;;;;;;5082256;28;20052;-74
2022/10/19 04:29:40;;;;;;;1.75;0.80;;;16.40;68.30;;;;;;5089433;28;20047;-74
2022/10/19 04:32:06;;;;;;;1.67;0.90;;;16.40;68.30;;;;;;5079370;28;20082;-73
2022/10/19 04:34:33;;;;;;;0.77;0.63;;;16.40;68.30;;;;;;5072857;28;20048;-73
2022/10/19 04:37:00;;;;;;;1.08;0.70;;;16.40;68.30;;;;;;5080585;28;20052;-73
2022/10/19 04:39:28;;;;;;;0.75;0.70;;;16.40;68.30;;;;;;5092777;28;20056;-73
2022/10/19 04:41:55;;;;;;;3.22;1.05;;;16.40;68.30;;;;;;5092526;28;20048;-73
2022/10/19 04:44:22;;;;;;;1.02;0.70;;;16.40;68.30;;;;;;5090317;28;20695;-73
2022/10/19 04:46:48;;;;;;;1.85;0.80;;;16.40;68.30;;;;;;5072985;28;20138;-74
2022/10/19 04:49:15;;;;;;;1.55;0.75;;;16.40;68.30;;;;;;5072585;28;20058;-73
2022/10/19 04:51:42;;;;;;;2.13;0.90;;;16.40;68.20;;;;;;5072631;28;20050;-73
2022/10/19 04:54:08;;;;;;;1.17;0.80;;;16.40;68.20;;;;;;5073941;28;20151;-74
2022/10/19 04:56:37;;;;;;;1.40;0.80;;;16.40;68.20;;;;;;5093019;28;20143;-74
2022/10/19 04:59:04;;;;;;;1.95;1.35;;;16.40;68.20;;;;;;5092264;28;20063;-74
2022/10/19 05:01:31;;;;;;;0.85;0.70;;;16.40;68.20;;;;;;5091977;28;20048;-72
2022/10/19 05:03:58;;;;;;;1.77;0.80;;;16.40;68.20;;;;;;5092469;28;20598;-72
2022/10/19 05:06:25;;;;;;;1.58;0.77;;;16.40;68.20;;;;;;5073198;28;20063;-72
2022/10/19 05:08:52;;;;;;;1.85;0.98;;;16.40;68.20;;;;;;5073173;28;20044;-73
2022/10/19 05:11:19;;;;;;;1.52;0.77;;;16.40;68.20;;;;;;5071639;28;20059;-73
2022/10/19 05:13:48;;;;;;;0.90;0.70;;;16.40;68.20;;;;;;5073278;28;20052;-74
2022/10/19 05:16:16;;;;;;;3.20;0.90;;;16.40;68.20;;;;;;5089447;28;20060;-73
2022/10/19 05:18:46;;;;;;;3.00;0.93;;;16.40;68.20;;;;;;5092525;28;20087;-74
2022/10/19 05:21:13;;;;;;;2.13;0.80;;;16.40;68.20;;;;;;5092041;28;20051;-74
2022/10/19 05:23:40;;;;;;;1.30;0.80;;;16.30;68.10;;;;;;5092169;28;20501;-73
2022/10/19 05:26:08;;;;;;;2.05;0.90;;;16.40;68.20;;;;;;5075326;28;20413;-73
2022/10/19 05:28:34;;;;;;;1.38;1.00;;;16.40;68.20;;;;;;5071778;28;20147;-74
2022/10/19 05:31:10;;;;;;;2.28;0.70;;;16.30;68.10;;;;;;5091224;28;20485;-74
2022/10/19 05:33:37;;;;;;;1.27;0.80;;;16.40;68.10;;;;;;5092065;28;20508;-74
2022/10/19 05:36:12;;;;;;;1.10;0.65;;;16.30;68.10;;;;;;5091710;28;20058;-74
2022/10/19 05:38:39;;;;;;;1.45;0.77;;;16.40;68.10;;;;;;5092034;28;20062;-74
2022/10/19 05:41:05;;;;;;;1.73;0.73;;;16.30;68.10;;;;;;5091475;28;20107;-74
2022/10/19 05:43:32;;;;;;;1.88;0.85;;;16.30;68.10;;;;;;5092194;28;20056;-73
2022/10/19 05:46:03;;;;;;;1.17;0.70;;;16.30;68.10;;;;;;5059975;28;20141;-74
2022/10/19 05:48:32;;;;;;;1.23;0.68;;;16.30;68.10;;;;;;5071965;28;20056;-73
2022/10/19 05:50:59;;;;;;;1.92;1.25;;;16.30;70.60;;;;;;5077580;28;20063;-74
2022/10/19 05:53:26;;;;;;;1.40;0.85;;;16.30;68.10;;;;;;5091911;28;20058;-74
2022/10/19 05:55:52;;;;;;;1.75;0.75;;;16.30;68.10;;;;;;5090613;28;20127;-74
2022/10/19 05:58:19;;;;;;;2.60;1.60;;;16.30;68.10;;;;;;5091176;28;20052;-74
2022/10/19 06:00:51;;;;;;;2.63;0.80;;;16.30;68.10;;;;;;5091168;28;20052;-73
2022/10/19 06:03:18;;;;;;;1.80;0.70;;;16.30;68.00;;;;;;5092613;28;20070;-73
2022/10/19 06:05:46;;;;;;;2.05;0.80;;;16.30;68.10;;;;;;5078932;28;20075;-74
2022/10/19 06:08:12;;;;;;;2.33;0.85;;;16.30;68.10;;;;;;5071357;28;20489;-74
2022/10/19 06:10:39;;;;;;;1.35;0.80;;;16.30;68.10;;;;;;5071013;28;20056;-74
2022/10/19 06:13:06;;;;;;;1.63;0.82;;;16.30;68.10;;;;;;5071253;28;20052;-74
2022/10/19 06:15:33;;;;;;;0.88;0.70;;;16.30;68.10;;;;;;5081636;28;20048;-74
2022/10/19 06:18:00;;;;;;;1.35;0.80;;;16.30;68.10;;;;;;5092042;28;20461;-73
2022/10/19 06:20:28;;;;;;;3.53;0.80;;;16.30;68.10;;;;;;5089945;28;20054;-73
2022/10/19 06:22:56;;;;;;;2.17;0.85;;;16.30;68.10;;;;;;5090284;28;20105;-73
2022/10/19 06:25:23;;;;;;;1.42;0.80;;;16.30;68.10;;;;;;5090126;28;20515;-73
2022/10/19 06:27:49;;;;;;;1.45;0.80;;;16.30;68.10;;;;;;5091598;28;20044;-73
2022/10/19 06:30:16;;;;;;;1.05;0.80;;;16.30;70.20;;;;;;5091667;28;20135;-74
2022/10/19 06:32:43;;;;;;;1.75;0.88;;;16.30;68.20;;;;;;5085159;28;20051;-72
2022/10/19 06:35:09;;;;;;;2.40;0.80;;;16.30;68.20;;;;;;5084483;28;20459;-73
2022/10/19 06:37:36;;;;;;;1.95;0.93;;;16.30;68.20;;;;;;5070985;28;20143;-74
2022/10/19 06:40:05;;;;;;;1.27;0.75;;;16.30;68.20;;;;;;5070603;28;20507;-75
2022/10/19 06:42:32;;;;;;;1.35;0.80;;;16.30;68.10;;;;;;5079847;28;20063;-73
2022/10/19 06:44:59;;;;;;;1.50;0.80;;;16.30;68.10;;;;;;5078965;28;20054;-73
2022/10/19 06:47:31;;;;;;;1.08;0.68;;;16.40;68.60;;;;;;5080491;28;20060;-73
2022/10/19 06:49:58;;;;;;;1.50;0.90;;;16.40;68.10;;;;;;5079402;28;20060;-74
2022/10/19 06:52:25;;;;;;;1.20;0.85;;;16.40;68.00;;;;;;5081194;28;20131;-74
2022/10/19 06:54:52;;;;;;;4.63;0.80;;;16.50;68.00;;;;;;5081572;28;20056;-74
2022/10/19 06:57:20;;;;;;;2.05;0.88;;;16.50;68.00;;;;;;5088235;28;20055;-73
2022/10/19 06:59:47;;;;;;;4.35;1.05;;;16.60;68.00;;;;;;5085156;28;20047;-73
2022/10/19 07:02:13;;;;;;;0.88;0.77;;;16.60;67.90;;;;;;5091403;28;20051;-72
2022/10/19 07:04:43;;;;;;;2.13;0.75;;;16.60;67.80;;;;;;5095103;28;20066;-73
2022/10/19 07:07:10;;;;;;;2.80;0.77;;;16.70;67.80;;;;;;5094726;28;20130;-72
2022/10/19 07:09:37;;;;;;;1.80;0.90;;;16.70;67.70;;;;;;5095929;28;20135;-72
2022/10/19 07:12:03;;;;;;;3.10;0.80;;;16.70;67.70;;;;;;5088614;28;20052;-73
2022/10/19 07:14:37;;;;;;;3.22;1.00;;;16.80;67.70;;;;;;5080857;28;20052;-72
2022/10/19 07:17:04;;;;;;;2.35;0.88;;;16.80;67.60;;;;;;5058454;28;20139;-72
2022/10/19 07:19:31;;;;;;;3.78;1.27;;;16.80;67.60;;;;;;5076545;28;20481;-73
2022/10/19 07:21:58;;;;;;;4.32;1.13;;;16.90;67.60;;;;;;5080144;28;20071;-75
2022/10/19 07:24:25;;;;;;;3.28;1.00;;;16.90;67.50;;;;;;5094255;28;20482;-74
2022/10/19 07:26:51;;;;;;;3.03;0.90;;;16.90;68.00;;;;;;5093607;28;20131;-73
2022/10/19 07:29:18;;;;;;;3.22;1.00;;;17.00;67.50;;;;;;5094137;28;20052;-73
2022/10/19 07:31:46;;;;;;;9.52;1.27;;;17.00;67.40;;;;;;5089311;28;20045;-73
2022/10/19 07:34:16;;;;;;;3.08;1.10;;;17.00;67.50;;;;;;5079386;28;20140;-74
2022/10/19 07:36:45;;;;;;;2.22;0.95;;;17.10;67.70;;;;;;5084827;28;20135;-74
2022/10/19 07:39:12;;;;;;;2.35;0.80;;;17.10;67.60;;;;;;5083995;28;20072;-74
2022/10/19 07:41:38;;;;;;;2.42;1.13;;;17.20;67.60;;;;;;5079842;28;20139;-74
2022/10/19 07:44:05;;;;;;;1.95;0.90;;;17.20;67.50;;;;;;5073977;28;20106;-74
2022/10/19 07:46:32;;;;;;;2.95;0.82;;;17.20;67.40;;;;;;5073487;28;20401;-74
2022/10/19 07:49:02;;;;;;;2.40;0.70;;;17.20;67.30;;;;;;5084071;28;20055;-74
2022/10/19 07:51:29;;;;;;;2.72;1.00;;;17.30;67.30;;;;;;5083334;28;20052;-74
2022/10/19 07:53:56;;;;;;;2.38;0.98;;;17.30;67.20;;;;;;5082059;28;20081;-74
2022/10/19 07:56:23;;;;;;;1.55;0.80;;;17.30;67.20;;;;;;5083509;28;20054;-74
2022/10/19 07:58:51;;;;;;;2.70;0.90;;;17.30;67.10;;;;;;5084221;28;21532;-74
2022/10/19 08:01:19;;;;;;;2.00;0.77;;;17.30;67.00;;;;;;5082828;28;20098;-74
2022/10/19 08:03:46;;;;;;;2.63;0.70;;;17.30;67.00;;;;;;5084439;28;20054;-74
2022/10/19 08:06:16;;;;;;;1.85;0.88;;;17.40;67.00;;;;;;5085191;28;20044;-74
2022/10/19 08:08:43;;;;;;;3.50;1.00;;;17.40;66.90;;;;;;5083294;28;20052;-74
2022/10/19 08:11:11;;;;;;;1.98;0.95;;;17.40;66.90;;;;;;5081450;28;20143;-74
2022/10/19 08:13:38;;;;;;;1.85;0.98;;;17.40;66.80;;;;;;5081988;28;20048;-74
2022/10/19 08:16:05;;;;;;;1.52;0.75;;;17.50;66.90;;;;;;5082870;28;20127;-74
2022/10/19 08:18:32;;;;;;;2.10;0.90;;;17.40;66.80;;;;;;5083798;28;20048;-74
2022/10/19 08:21:01;;;;;;;1.52;0.65;;;17.50;66.80;;;;;;5075630;28;20060;-75
2022/10/19 08:23:30;;;;;;;4.10;1.52;;;17.50;66.80;;;;;;5090801;28;20058;-73
2022/10/19 08:26:00;;;;;;;4.25;0.90;;;17.50;66.70;;;;;;5094651;28;20090;-73
2022/10/19 08:28:27;;;;;;;2.90;0.95;;;17.50;66.80;;;;;;5091875;28;20048;-73
2022/10/19 08:30:57;;;;;;;1.85;0.93;;;17.50;66.60;;;;;;5075877;28;20135;-73
2022/10/19 08:33:24;;;;;;;1.88;1.10;;;17.50;66.60;;;;;;5093253;28;20074;-73
2022/10/19 08:35:52;;;;;;;2.40;0.85;;;17.60;66.60;;;;;;5092557;28;20056;-73
2022/10/19 08:38:19;;;;;;;2.42;0.90;;;17.60;66.60;;;;;;5093246;28;20056;-73
2022/10/19 08:40:48;;;;;;;1.45;0.75;;;17.60;66.50;;;;;;5093070;28;20048;-74
2022/10/19 08:43:17;;;;;;;1.55;0.55;;;17.60;66.50;;;;;;5076853;28;20049;-73
2022/10/19 08:45:44;;;;;;;3.80;0.90;;;17.60;66.50;;;;;;5072838;28;20136;-74
2022/10/19 08:48:25;;;;;;;4.40;0.95;;;17.60;66.50;;;;;;5072609;28;20505;-73
2022/10/19 08:50:52;;;;;;;2.95;1.10;;;17.60;66.40;;;;;;5072287;28;20135;-74
2022/10/19 08:53:22;;;;;;;1.65;0.93;;;17.70;66.40;;;;;;5089403;28;20051;-73
2022/10/19 08:55:57;;;;;;;1.45;0.80;;;17.70;66.40;;;;;;5092476;28;20167;-75
2022/10/19 08:58:27;;;;;;;;;;;17.70;66.40;;;;;;5093239;28;20058;-75
2022/10/19 09:00:55;;;;;;;1.67;0.82;;;17.70;66.60;;;;;;5092243;28;19924;-75
2022/10/19 09:03:24;;;;;;;1.42;0.80;;;17.60;66.40;;;;;;5075793;28;20413;-74
2022/10/19 09:05:53;;;;;;;1.35;0.73;;;17.70;66.40;;;;;;5072073;28;20052;-75
2022/10/19 09:08:20;;;;;;;1.08;0.65;;;17.70;66.40;;;;;;5072370;28;20048;-75
2022/10/19 09:10:48;;;;;;;2.90;1.02;;;17.70;66.40;;;;;;5071976;28;20486;-74
2022/10/19 09:13:20;;;;;;;1.27;0.70;;;17.70;66.50;;;;;;5086635;28;20052;-74
2022/10/19 09:15:47;;;;;;;1.75;0.80;;;17.70;66.60;;;;;;5093339;28;20044;-74
2022/10/19 09:18:18;;;;;;;2.70;0.90;;;17.70;66.60;;;;;;5091778;28;20132;-75
2022/10/19 09:20:46;;;;;;;2.08;0.90;;;17.70;66.70;;;;;;5093187;28;20090;-74
2022/10/19 09:23:22;;;;;;;1.95;0.90;;;17.70;66.80;;;;;;5077385;28;20630;-74
2022/10/19 09:25:48;;;;;;;3.78;0.88;;;17.70;66.90;;;;;;5088960;28;20545;-76
2022/10/19 09:28:25;;;;;;;2.63;0.88;;;17.60;67.00;;;;;;5091927;28;20052;-73
2022/10/19 09:30:52;;;;;;;1.45;0.63;;;17.70;67.10;;;;;;5091746;28;20503;-74
2022/10/19 09:33:21;;;;;;;2.05;0.75;;;17.70;67.10;;;;;;5091571;28;20058;-74
2022/10/19 09:35:47;;;;;;;2.15;0.90;;;17.70;67.20;;;;;;5087325;28;20048;-74
2022/10/19 09:38:15;;;;;;;1.40;0.80;;;17.60;67.10;;;;;;5081525;28;20052;-74
2022/10/19 09:40:42;;;;;;;1.52;0.75;;;17.60;67.10;;;;;;5079998;28;20067;-73
2022/10/19 09:43:18;;;;;;;2.15;0.90;;;17.60;67.10;;;;;;5080921;28;20420;-74
2022/10/19 09:45:49;;;;;;;1.40;0.63;;;17.60;67.10;;;;;;5079513;28;20738;-74
2022/10/19 09:48:18;;;;;;;2.28;0.85;;;17.60;67.10;;;;;;5079576;28;20128;-74
2022/10/19 09:50:56;;;;;;;1.42;0.80;;;17.60;67.10;;;;;;5081803;28;20416;-74
2022/10/19 09:53:25;;;;;;;2.45;0.90;;;17.60;67.00;;;;;;5083337;28;20054;-74
2022/10/19 09:55:57;;;;;;;2.20;1.00;;;17.60;67.10;;;;;;5080485;28;20132;-73
2022/10/19 09:58:25;;;;;;;2.53;0.90;;;17.60;67.10;;;;;;5092133;28;20127;-74
2022/10/19 10:00:54;;;;;;;2.95;0.90;;;17.60;67.00;;;;;;5090954;28;20515;-74
2022/10/19 10:03:25;;;;;;;1.60;0.80;;;17.60;67.00;;;;;;5091723;28;20066;-74
2022/10/19 10:05:52;;;;;;;2.08;0.90;;;17.60;66.90;;;;;;5092126;28;20048;-73
2022/10/19 10:08:20;;;;;;;0.98;0.60;;;17.60;66.90;;;;;;5089979;28;20060;-74
2022/10/19 10:10:48;;;;;;;3.72;0.80;;;17.60;66.90;;;;;;5089738;28;20090;-74
2022/10/19 10:13:16;;;;;;;1.70;0.80;;;17.60;67.00;;;;;;5089390;28;20056;-74
2022/10/19 10:15:44;;;;;;;1.23;0.73;;;17.60;66.90;;;;;;5090125;28;20056;-74
2022/10/19 10:18:16;;;;;;;1.73;0.80;;;17.50;66.90;;;;;;5090041;28;20148;-74
2022/10/19 10:20:57;;;;;;;2.00;0.80;;;17.60;67.00;;;;;;5089347;28;20052;-73
2022/10/19 10:23:25;;;;;;;2.53;0.88;;;17.60;66.90;;;;;;5082332;28;20052;-74
2022/10/19 10:25:55;;;;;;;1.90;0.80;;;17.50;67.00;;;;;;5071216;28;20135;-74
2022/10/19 10:28:22;;;;;;;1.45;0.80;;;17.60;67.00;;;;;;5070849;28;20075;-73
2022/10/19 10:30:49;;;;;;;1.67;0.80;;;17.50;67.00;;;;;;5073414;28;20138;-75
2022/10/19 10:33:18;;;;;;;1.25;0.77;;;17.50;67.00;;;;;;5074484;28;20109;-74
2022/10/19 10:35:47;;;;;;;1.15;0.75;;;17.50;67.00;;;;;;5073360;28;20048;-74
2022/10/19 10:38:16;;;;;;;1.65;0.80;;;17.50;67.00;;;;;;5071708;28;20054;-74
2022/10/19 10:40:49;;;;;;;0.85;0.70;;;17.50;66.90;;;;;;5072636;28;20328;-75
2022/10/19 10:43:16;;;;;;;2.63;0.90;;;17.50;66.90;;;;;;5077825;28;20052;-74
2022/10/19 10:45:45;;;;;;;2.65;0.90;;;17.50;66.90;;;;;;5091267;28;20497;-73
2022/10/19 10:48:27;;;;;;;3.88;0.90;;;17.50;66.90;;;;;;5091278;28;20067;-74
2022/10/19 10:50:54;;;;;;;1.55;0.80;;;17.50;66.90;;;;;;5092110;28;20057;-74
2022/10/19 10:53:32;;;;;;;3.28;0.90;;;17.50;67.00;;;;;;5083496;28;20059;-75
2022/10/19 10:55:59;;;;;;;2.40;0.90;;;17.50;66.90;;;;;;5070504;28;20063;-75
2022/10/19 10:58:36;;;;;;;3.38;0.88;;;17.50;67.00;;;;;;5085274;28;20036;-74
2022/10/19 11:01:05;;;;;;;4.40;0.82;;;17.50;67.00;;;;;;5081514;28;20051;-74
2022/10/19 11:03:33;;;;;;;1.67;0.85;;;17.50;67.00;;;;;;5075364;28;20123;-74
2022/10/19 11:06:01;;;;;;;2.22;0.90;;;17.50;67.00;;;;;;5085500;28;20052;-75
2022/10/19 11:08:31;;;;;;;1.83;0.85;;;17.50;67.00;;;;;;5083108;28;20424;-75
2022/10/19 11:11:00;;;;;;;3.25;1.25;;;17.50;66.90;;;;;;5083164;28;20055;-74
2022/10/19 11:13:28;;;;;;;5.95;2.63;;;17.50;66.90;;;;;;5083011;28;20049;-74
2022/10/19 11:15:57;;;;;;;6.05;2.00;;;17.50;67.10;;;;;;5087992;28;20555;-74
2022/10/19 11:18:25;;;;;;;5.85;1.83;;;19.20;68.00;;;;;;5091107;28;20135;-74
2022/10/19 11:20:59;;;;;;;5.07;2.10;;;17.50;67.10;;;;;;5089026;28;20127;-74
2022/10/19 11:23:34;;;;;;;8.48;2.15;;;17.50;67.10;;;;;;5090355;28;20058;-74
2022/10/19 11:26:06;;;;;;;5.20;2.20;;;17.50;67.10;;;;;;5085564;28;20509;-75
2022/10/19 11:28:41;;;;;;;4.32;2.00;;;17.50;67.10;;;;;;5071170;28;20047;-74
2022/10/19 11:31:11;;;;;;;6.50;2.00;;;17.50;67.10;;;;;;5070233;28;20500;-74
2022/10/19 11:33:44;;;;;;;6.65;2.25;;;17.50;67.10;;;;;;5071468;28;20067;-73
2022/10/19 11:36:18;;;;;;;5.22;1.80;;;17.50;67.10;;;;;;5071551;28;20055;-74
2022/10/19 11:38:50;;;;;;;4.38;1.80;;;17.50;67.10;;;;;;5070343;28;20566;-74
2022/10/19 11:41:25;;;;;;;6.15;1.90;;;17.50;67.10;;;;;;5072147;28;20076;-73
2022/10/19 11:44:12;;;;;;;5.80;2.20;;;17.50;67.10;;;;;;5091506;28;20048;-75
2022/10/19 11:46:42;;;;;;;4.20;1.80;;;17.50;67.00;;;;;;5089685;28;20429;-74
2022/10/19 11:49:17;;;;;;;4.13;1.90;;;17.50;67.10;;;;;;5074248;28;20136;-75
2022/10/19 11:51:50;;;;;;;6.03;2.33;;;17.50;67.00;;;;;;5073293;28;20413;-75
2022/10/19 11:54:27;;;;;;;3.90;1.65;;;17.50;67.00;;;;;;5073762;28;20102;-75
2022/10/19 11:56:56;;;;;;;4.95;1.75;;;17.50;67.00;;;;;;5075052;28;20048;-75
2022/10/19 11:59:28;;;;;;;4.57;1.80;;;17.50;67.00;;;;;;5092184;28;20484;-74
2022/10/19 12:01:58;;;;;;;4.63;2.20;;;17.50;67.00;;;;;;5093521;28;20210;-75
2022/10/19 12:04:43;;;;;;;3.70;1.80;;;17.50;66.90;;;;;;5093495;28;20044;-74
2022/10/19 12:07:35;;;;;;;3.85;1.42;;;17.50;66.90;;;;;;5093727;28;20136;-73
2022/10/19 12:10:06;;;;;;;4.90;1.63;;;17.50;66.90;;;;;;5074226;28;20553;-75
2022/10/19 12:12:33;;;;;;;4.45;1.67;;;17.50;66.90;;;;;;5073214;28;20053;-75
2022/10/19 12:15:05;;;;;;;4.65;1.45;;;17.50;66.90;;;;;;5073236;28;20059;-74
2022/10/19 12:17:33;;;;;;;4.13;1.42;;;17.50;66.90;;;;;;5076082;28;20058;-74
2022/10/19 12:20:01;;;;;;;4.70;1.30;;;17.50;66.90;;;;;;5092771;28;20060;-74
2022/10/19 12:22:30;;;;;;;2.85;1.40;;;17.50;66.90;;;;;;5093486;28;20118;-74
2022/10/19 12:24:58;;;;;;;3.92;1.40;;;17.50;66.90;;;;;;5093121;28;20097;-74
2022/10/19 12:27:29;;;;;;;2.38;1.20;;;17.50;66.90;;;;;;5081765;28;20552;-73
2022/10/19 12:29:56;;;;;;;3.30;1.20;;;17.50;66.80;;;;;;5072923;28;20063;-73
2022/10/19 12:32:22;;;;;;;2.80;1.60;;;17.50;66.80;;;;;;5083147;28;20043;-74
2022/10/19 12:34:52;;;;;;;3.10;1.42;;;17.50;66.80;;;;;;5084474;28;20405;-74
2022/10/19 12:37:21;;;;;;;3.78;1.50;;;17.50;66.80;;;;;;5086746;28;20506;-74
2022/10/19 12:39:52;;;;;;;3.78;1.33;;;17.40;66.70;;;;;;5077622;28;20063;-75
2022/10/19 12:42:22;;;;;;;3.67;1.38;;;17.40;66.80;;;;;;5084206;28;20044;-75
2022/10/19 12:45:10;;;;;;;2.72;1.50;;;15.80;66.40;;;;;;5082332;28;20043;-74
2022/10/19 12:47:37;;;;;;;4.03;1.50;;;17.50;66.70;;;;;;5072730;28;20086;-74
2022/10/19 12:50:04;;;;;;;2.63;1.20;;;17.50;66.90;;;;;;5075062;28;20054;-75
2022/10/19 12:52:39;;;;;;;3.60;1.60;;;17.40;66.70;;;;;;5072383;28;20059;-75
2022/10/19 12:55:13;;;;;;;2.97;1.48;;;17.40;66.70;;;;;;5077689;28;20055;-75
2022/10/19 12:57:42;;;;;;;5.07;1.50;;;17.50;66.80;;;;;;5078011;28;20044;-75